KHYI

San Marcos Regional Airport

Austin, Texas, USA
METAR KHYI 250056Z AUTO 15012KT 10SM FEW055 30/22 A2997 RMK AO2 SLP136 T03000217 $
Observed Flight Rules
May-25 @ 00:56 UTC (8 minutes ago) Visual Flight Rules
Wind Visibility Clouds
150° at 12 knots 10 miles
  • Few at 5,500' AGL
Temperatures Readings
Current 30°C / 86°F
Dewpoint 22°C / 72°F
Humidity 62%
Altimeter 29.97" Hg
Pressure 1013.6 hPa
Elevation 182
METAR KHYI 250056Z AUTO 15012KT 10SM FEW055 30/22 A2997 RMK AO2 SLP136 T03000217 $
Observed Flight Rules
May-25 @ 00:56 UTC
(8 minutes ago)
VFR
Wind Visibility
150° at 12 knots 10 miles
Clouds
  • Few at 5,500' AGL
Temperature Dewpoint
30°C / 86°F 22°C / 72°F
Humidity Altimeter Pressure
62% 29.97" Hg 1013.6 hPa